Time;durP1;ratioP1;P1;durP2;ratioP2;P2;SDS_P1;SDS_P2;PMS_P1;PMS_P2;Temp;Humidity;BMP_temperature;BMP_pressure;BME280_temperature;BME280_humidity;BME280_pressure;Samples;Min_cycle;Max_cycle;Signal;HPM_P1;HPM_P2
2021/03/12 00:05:13;;;;;;;11.80;2.37;;;;;;;7.00;100.00;98029.09;3813269;76;392115;-78
2021/03/12 00:10:34;;;;;;;0.90;0.60;;;;;;;6.88;100.00;98028.19;3813777;76;383583;-79
2021/03/12 00:15:56;;;;;;;0.80;0.50;;;;;;;6.71;100.00;98046.83;3813862;76;383576;-78
2021/03/12 00:21:19;;;;;;;1.20;0.53;;;;;;;6.62;100.00;98062.31;3812186;76;389834;-78
2021/03/12 00:26:40;;;;;;;0.90;0.50;;;;;;;6.31;100.00;98074.72;3813826;76;383564;-79
2021/03/12 00:32:02;;;;;;;15.00;0.70;;;;;;;5.69;100.00;98066.84;3813502;76;390071;-78
2021/03/12 00:37:23;;;;;;;0.80;0.40;;;;;;;5.50;100.00;98040.56;3813873;76;383576;-78
2021/03/12 00:42:45;;;;;;;0.80;0.40;;;;;;;5.44;100.00;98033.95;3812690;77;383579;-78
2021/03/12 00:48:06;;;;;;;2.40;0.50;;;;;;;5.46;100.00;98002.95;3813055;76;389881;-78
2021/03/12 00:53:28;;;;;;;0.80;0.40;;;;;;;5.65;100.00;98018.91;3813895;76;383564;-77
2021/03/12 00:58:50;;;;;;;0.80;0.40;;;;;;;5.73;100.00;98044.44;3814250;76;383540;-77
2021/03/12 01:04:11;;;;;;;0.80;0.40;;;;;;;5.80;100.00;98078.56;3818428;77;383800;-77
2021/03/12 01:09:35;;;;;;;0.80;0.40;;;;;;;5.76;100.00;98088.69;3818576;76;383567;-77
2021/03/12 01:14:56;;;;;;;1.00;0.40;;;;;;;5.77;100.00;98097.67;3818269;76;387761;-77
2021/03/12 01:20:20;;;;;;;0.87;0.57;;;;;;;5.73;100.00;98085.36;3818845;76;383548;-77
2021/03/12 01:25:44;;;;;;;0.90;0.50;;;;;;;5.71;100.00;98089.06;3817721;76;383828;-76
2021/03/12 01:31:05;;;;;;;0.80;0.40;;;;;;;5.68;100.00;98115.75;3817789;76;383580;-76
2021/03/12 01:36:28;;;;;;;0.80;0.40;;;;;;;5.68;100.00;98129.39;3817577;76;383580;-76
2021/03/12 01:41:50;;;;;;;0.80;0.50;;;;;;;5.67;100.00;98136.61;3818571;76;383540;-76
2021/03/12 01:47:11;;;;;;;0.80;0.40;;;;;;;5.62;100.00;98141.87;3818636;76;383587;-76
2021/03/12 01:52:33;;;;;;;1.63;1.17;;;;;;;5.67;100.00;98137.97;3818166;76;388726;-76
2021/03/12 01:57:55;;;;;;;1.73;1.10;;;;;;;5.71;100.00;98127.26;3817623;76;396120;-76
2021/03/12 02:03:19;;;;;;;0.90;0.63;;;;;;;5.67;100.00;98133.88;3813815;76;389858;-77
2021/03/12 02:08:39;;;;;;;0.80;0.50;;;;;;;5.74;100.00;98143.43;3813669;76;383584;-76
2021/03/12 02:14:10;;;;;;;0.80;0.43;;;;;;;5.71;100.00;98172.28;3813958;76;383579;-76
2021/03/12 02:19:52;;;;;;;0.80;0.40;;;;;;;5.74;100.00;98169.34;3813535;76;383813;-76
2021/03/12 02:25:16;;;;;;;0.80;0.50;;;;;;;5.64;100.00;98172.28;3815162;74;383568;-76
2021/03/12 02:30:39;;;;;;;0.80;0.40;;;;;;;5.62;100.00;98167.79;3814205;76;383801;-76
2021/03/12 02:36:02;;;;;;;0.90;0.63;;;;;;;5.55;100.00;98193.70;3814008;76;383580;-76
2021/03/12 02:41:26;;;;;;;1.33;0.90;;;;;;;5.50;100.00;98218.61;3813141;76;395021;-76
2021/03/12 02:46:48;;;;;;;1.43;0.50;;;;;;;5.43;100.00;98232.03;3813574;76;389811;-75
2021/03/12 02:52:09;;;;;;;0.80;0.40;;;;;;;5.39;100.00;98223.84;3814345;76;383859;-76
2021/03/12 02:57:30;;;;;;;0.80;0.40;;;;;;;5.39;100.00;98242.16;3813944;76;383576;-75
2021/03/12 03:02:52;;;;;;;0.90;0.53;;;;;;;5.33;100.00;98254.62;3817216;76;383797;-75
2021/03/12 03:08:14;;;;;;;0.90;0.50;;;;;;;5.28;100.00;98243.50;3818585;76;383540;-76
2021/03/12 03:13:37;;;;;;;15.80;1.00;;;;;;;5.29;100.00;98250.48;3818282;76;383866;-75
2021/03/12 03:19:00;;;;;;;0.80;0.40;;;;;;;5.33;100.00;98266.30;3818561;77;383800;-76
2021/03/12 03:24:21;;;;;;;0.80;0.40;;;;;;;5.28;100.00;98272.13;3818723;77;383828;-76
2021/03/12 03:29:44;;;;;;;0.80;0.40;;;;;;;5.30;100.00;98281.28;3818551;76;383545;-75
2021/03/12 03:35:08;;;;;;;0.80;0.40;;;;;;;5.36;100.00;98289.28;3831688;75;383568;-76
2021/03/12 03:40:29;;;;;;;0.80;0.40;;;;;;;5.33;100.00;98292.20;3831786;76;383789;-75
2021/03/12 03:45:53;;;;;;;1.00;0.60;;;;;;;5.35;100.00;98314.98;3833214;74;383587;-76
2021/03/12 03:51:15;;;;;;;0.90;0.60;;;;;;;5.38;100.00;98312.27;3831517;75;383567;-75
2021/03/12 03:56:38;;;;;;;0.80;0.40;;;;;;;5.42;100.00;98328.08;3831704;75;383844;-75
2021/03/12 04:02:00;;;;;;;0.83;0.50;;;;;;;5.48;100.00;98347.59;3822511;75;383580;-75
2021/03/12 04:07:22;;;;;;;0.80;0.40;;;;;;;5.49;100.00;98349.33;3807732;76;383579;-75
2021/03/12 04:12:46;;;;;;;1.17;1.07;;;;;;;5.39;100.00;98342.47;3806731;76;396083;-76
2021/03/12 04:18:07;;;;;;;0.90;0.77;;;;;;;5.27;100.00;98354.29;3807483;76;387688;-76
2021/03/12 04:23:28;;;;;;;0.80;0.50;;;;;;;5.21;100.00;98359.31;3807695;76;383552;-76
2021/03/12 04:28:50;;;;;;;0.80;0.40;;;;;;;5.20;100.00;98370.61;3807532;76;383805;-76
2021/03/12 04:34:11;;;;;;;1.63;1.33;;;;;;;5.25;100.00;98383.91;3806890;76;394473;-76
2021/03/12 04:39:33;;;;;;;0.80;0.50;;;;;;;5.30;100.00;98388.98;3807619;76;383576;-75
2021/03/12 04:44:54;;;;;;;0.80;0.40;;;;;;;5.35;100.00;98398.95;3807760;76;383583;-75
2021/03/12 04:50:16;;;;;;;0.83;0.50;;;;;;;5.33;100.00;98397.19;3807935;76;383579;-75
2021/03/12 04:55:38;;;;;;;1.33;0.90;;;;;;;5.29;100.00;98413.33;3806916;76;394223;-76
2021/03/12 05:00:59;;;;;;;0.90;0.60;;;;;;;5.35;100.00;98407.70;3807881;76;383580;-76
2021/03/12 05:06:21;;;;;;;6.83;0.83;;;;;;;5.35;100.00;98417.25;3807505;76;383915;-76
2021/03/12 05:11:45;;;;;;;1.83;1.23;;;;;;;5.33;100.00;98424.45;3806773;76;396084;-75
2021/03/12 05:17:06;;;;;;;0.80;0.40;;;;;;;5.37;100.00;98436.75;3809499;74;383572;-76
2021/03/12 05:22:29;;;;;;;0.90;0.50;;;;;;;5.38;100.00;98437.72;3807852;76;383587;-75
2021/03/12 05:27:50;;;;;;;1.30;0.60;;;;;;;5.35;98.95;98444.52;3807374;76;390142;-76
2021/03/12 05:33:12;;;;;;;4.40;1.13;;;;;;;5.21;100.00;98438.98;3807263;76;383541;-75
2021/03/12 05:38:33;;;;;;;0.90;0.80;;;;;;;5.18;99.52;98454.72;3807490;76;387699;-75
2021/03/12 05:43:56;;;;;;;0.80;0.50;;;;;;;5.12;99.86;98463.86;3807816;76;383572;-75
2021/03/12 05:49:19;;;;;;;1.13;0.70;;;;;;;5.17;98.71;98476.36;3807461;76;387748;-76
2021/03/12 05:54:42;;;;;;;0.80;0.50;;;;;;;5.17;100.00;98481.80;3807810;76;383595;-75
2021/03/12 06:00:06;;;;;;;11.33;0.90;;;;;;;5.18;100.00;98495.61;3807236;76;398174;-75
2021/03/12 06:05:28;;;;;;;0.80;0.40;;;;;;;5.21;100.00;98497.00;3819727;76;383575;-75
2021/03/12 06:10:51;;;;;;;0.80;0.40;;;;;;;5.25;100.00;98503.28;3813981;76;383588;-74
2021/03/12 06:16:29;;;;;;;5.80;2.30;;;;;;;5.28;99.68;98516.73;3811905;76;383797;-74
2021/03/12 06:21:51;;;;;;;0.80;0.40;;;;;;;5.30;100.00;98517.14;3813235;76;383564;-74
2021/03/12 06:27:15;;;;;;;0.80;0.40;;;;;;;5.28;100.00;98515.37;3815375;74;383580;-74
2021/03/12 06:32:44;;;;;;;0.90;0.60;;;;;;;5.30;100.00;98524.73;3813703;76;383596;-75
2021/03/12 06:38:11;;;;;;;1.00;0.60;;;;;;;5.30;100.00;98526.69;3813708;76;383609;-75
2021/03/12 06:43:35;;;;;;;0.90;0.70;;;;;;;5.35;100.00;98535.88;3813963;76;383805;-74
2021/03/12 06:49:03;;;;;;;0.80;0.40;;;;;;;5.36;100.00;98539.61;3803715;77;383572;-74
2021/03/12 06:54:26;;;;;;;5.13;2.20;;;;;;;5.43;100.00;98547.04;3812830;76;395031;-75
2021/03/12 06:59:47;;;;;;;0.80;0.40;;;;;;;5.51;100.00;98549.45;3813586;77;383571;-75
2021/03/12 07:05:08;;;;;;;0.80;0.50;;;;;;;5.57;100.00;98546.57;3813810;76;383932;-75
2021/03/12 07:10:36;;;;;;;0.80;0.40;;;;;;;5.62;100.00;98560.64;3812780;76;383579;-75
2021/03/12 07:15:58;;;;;;;1.07;0.60;;;;;;;5.66;100.00;98575.08;3813851;76;383844;-75
2021/03/12 07:21:23;;;;;;;0.90;0.50;;;;;;;5.73;98.93;98588.80;3813616;76;383568;-75
2021/03/12 07:26:50;;;;;;;0.80;0.50;;;;;;;5.79;99.00;98599.59;3813579;76;383623;-75
2021/03/12 07:32:13;;;;;;;0.80;0.40;;;;;;;5.85;94.50;98591.23;3815519;74;383568;-75
2021/03/12 07:37:36;;;;;;;0.80;0.50;;;;;;;5.95;94.81;98604.19;3813880;76;383828;-75
2021/03/12 07:42:59;;;;;;;0.80;0.60;;;;;;;6.01;95.20;98613.57;3812703;77;383808;-75
2021/03/12 07:48:24;;;;;;;1.00;0.60;;;;;;;6.05;93.15;98628.05;3812369;76;383882;-75
2021/03/12 07:53:57;;;;;;;0.80;0.50;;;;;;;6.08;91.80;98627.86;3813942;76;383572;-75
2021/03/12 07:59:18;;;;;;;0.80;0.40;;;;;;;6.18;93.74;98629.87;3813550;76;383560;-75
2021/03/12 08:04:41;;;;;;;0.90;0.50;;;;;;;6.28;93.56;98640.86;3816302;76;383796;-76
2021/03/12 08:10:18;;;;;;;0.90;0.50;;;;;;;6.42;92.34;98642.30;3818492;76;383564;-76
2021/03/12 08:15:40;;;;;;;0.80;0.50;;;;;;;6.57;90.63;98635.17;3818394;76;383812;-75
2021/03/12 08:21:22;;;;;;;2.00;0.97;;;;;;;6.70;89.14;98631.52;3817815;76;385875;-75
2021/03/12 08:26:52;;;;;;;2.10;0.87;;;;;;;7.08;88.23;98633.59;3817419;76;394039;-75
2021/03/12 08:32:38;;;;;;;3.90;1.27;;;;;;;7.74;86.25;98634.47;3815869;76;395317;-75
2021/03/12 08:37:59;;;;;;;3.07;2.23;;;;;;;7.08;88.88;98643.16;3817201;76;396357;-75
2021/03/12 08:43:24;;;;;;;12.27;1.63;;;;;;;6.76;91.53;98632.70;3817631;76;391921;-75
2021/03/12 08:48:48;;;;;;;2.50;1.40;;;;;;;6.93;90.27;98640.19;3817143;76;396029;-76
2021/03/12 08:54:09;;;;;;;3.10;1.27;;;;;;;7.08;88.73;98623.42;3817994;76;384506;-75
2021/03/12 08:59:30;;;;;;;4.90;1.83;;;;;;;7.67;86.95;98628.99;3817160;76;393007;-75
2021/03/12 09:04:51;;;;;;;2.00;1.90;;;;;;;8.04;83.30;98624.65;3819993;74;387742;-76
2021/03/12 09:10:29;;;;;;;0.90;0.60;;;;;;;8.41;81.13;98633.23;3818636;76;383820;-75
2021/03/12 09:15:52;;;;;;;0.90;0.60;;;;;;;8.21;77.06;98620.36;3819409;76;384543;-75
2021/03/12 09:21:16;;;;;;;0.80;0.40;;;;;;;7.75;80.71;98635.23;3804188;77;384767;-75
2021/03/12 09:26:38;;;;;;;0.90;0.50;;;;;;;7.54;82.18;98637.37;3818416;76;384529;-75
2021/03/12 09:31:59;;;;;;;3.63;1.07;;;;;;;7.66;81.04;98651.27;3818657;76;384513;-75
2021/03/12 09:37:22;;;;;;;1.93;0.67;;;;;;;7.49;79.36;98650.66;3818139;76;383797;-75
2021/03/12 09:42:43;;;;;;;1.10;0.97;;;;;;;7.58;77.91;98636.80;3818147;76;388944;-75
2021/03/12 09:48:05;;;;;;;1.07;0.67;;;;;;;7.81;77.91;98637.20;3818192;76;387988;-75
2021/03/12 09:53:26;;;;;;;0.80;0.50;;;;;;;7.77;69.56;98636.41;3818579;76;384822;-75
2021/03/12 09:58:48;;;;;;;2.23;1.50;;;;;;;7.80;65.93;98643.84;3817374;76;396067;-75
2021/03/12 10:04:34;;;;;;;0.80;0.50;;;;;;;7.79;65.96;98656.56;3818393;75;383800;-75
2021/03/12 10:09:53;;;;;;;1.03;0.87;;;;;;;7.79;64.81;98651.86;3818137;76;384498;-75
2021/03/12 10:15:18;;;;;;;13.70;0.83;;;;;;;8.36;63.03;98642.44;3818346;76;397007;-75
2021/03/12 10:20:39;;;;;;;0.90;0.53;;;;;;;8.50;63.04;98639.66;3820050;74;384760;-75
2021/03/12 10:26:03;;;;;;;5.57;3.40;;;;;;;8.01;62.31;98635.61;3819729;74;384506;-75
2021/03/12 10:31:23;;;;;;;0.90;0.67;;;;;;;8.19;62.70;98626.81;3818594;76;384509;-77
2021/03/12 10:36:44;;;;;;;1.00;0.70;;;;;;;8.11;61.70;98627.40;3819740;74;389681;-77
2021/03/12 10:42:06;;;;;;;0.90;0.60;;;;;;;8.25;62.24;98621.12;3820471;74;384802;-77
2021/03/12 10:47:28;;;;;;;0.80;0.40;;;;;;;8.13;62.01;98615.44;3818848;76;384541;-78
2021/03/12 10:52:49;;;;;;;1.20;0.87;;;;;;;8.26;60.65;98621.31;3818120;76;388666;-77
2021/03/12 10:58:28;;;;;;;0.80;0.50;;;;;;;8.28;61.95;98612.89;3818587;76;384514;-77
2021/03/12 11:03:50;;;;;;;0.90;0.60;;;;;;;8.21;59.89;98606.66;3818642;76;384567;-77
2021/03/12 11:09:13;;;;;;;0.90;0.50;;;;;;;8.19;60.10;98599.42;3818484;76;385552;-77
2021/03/12 11:14:34;;;;;;;0.80;0.40;;;;;;;8.29;59.45;98613.69;3818733;76;384501;-77
2021/03/12 11:19:56;;;;;;;0.83;0.50;;;;;;;8.41;58.43;98606.39;3818790;76;384802;-77
2021/03/12 11:25:18;;;;;;;0.90;0.60;;;;;;;8.59;58.05;98603.81;3818493;76;384507;-77
2021/03/12 11:30:39;;;;;;;1.60;0.60;;;;;;;8.43;57.91;98602.68;3819421;74;390864;-77
2021/03/12 11:36:03;;;;;;;2.07;1.07;;;;;;;8.47;57.47;98604.83;3816396;76;396095;-76
2021/03/12 11:41:23;;;;;;;0.90;0.60;;;;;;;8.48;55.84;98594.83;3819137;76;383809;-75
2021/03/12 11:46:44;;;;;;;2.80;1.27;;;;;;;8.66;56.74;98580.47;3817579;76;397096;-74
2021/03/12 11:52:07;;;;;;;0.80;0.50;;;;;;;8.62;56.05;98603.60;3819336;76;383544;-75
2021/03/12 11:57:28;;;;;;;1.10;0.80;;;;;;;8.89;54.88;98588.38;3818455;76;384511;-75
2021/03/12 12:02:51;;;;;;;1.30;0.60;;;;;;;9.04;56.07;98565.77;3818545;76;384544;-75
2021/03/12 12:08:12;;;;;;;0.80;0.50;;;;;;;9.44;53.27;98562.34;3814208;76;384564;-76
2021/03/12 12:13:33;;;;;;;0.90;0.60;;;;;;;9.39;55.52;98548.46;3813488;76;385524;-75
2021/03/12 12:18:57;;;;;;;1.00;0.60;;;;;;;9.51;53.68;98545.24;3813263;76;386930;-76
2021/03/12 12:24:18;;;;;;;3.93;0.80;;;;;;;9.46;54.18;98531.93;3812877;76;394975;-75
2021/03/12 12:29:40;;;;;;;2.40;0.87;;;;;;;9.49;53.69;98533.88;3812866;76;395081;-75
2021/03/12 12:35:01;;;;;;;0.93;0.80;;;;;;;9.53;55.54;98527.17;3813402;76;388733;-76
2021/03/12 12:40:24;;;;;;;7.97;4.13;;;;;;;9.43;53.43;98524.52;3813089;76;397053;-76
2021/03/12 12:45:45;;;;;;;1.60;1.03;;;;;;;9.44;54.81;98508.24;3814557;74;390761;-76
2021/03/12 12:51:07;;;;;;;0.80;0.40;;;;;;;9.55;53.05;98496.55;3813511;77;384519;-75
2021/03/12 12:56:30;;;;;;;14.87;0.80;;;;;;;9.81;52.13;98497.29;3812994;76;392916;-75
2021/03/12 13:01:51;;;;;;;0.80;0.50;;;;;;;9.65;51.18;98481.34;3813454;76;384831;-75
2021/03/12 13:07:12;;;;;;;20.77;1.60;;;;;;;10.33;49.39;98483.77;3814483;76;398119;-75
2021/03/12 13:12:34;;;;;;;0.90;0.60;;;;;;;10.72;49.52;98479.91;3818389;76;384756;-75
2021/03/12 13:17:55;;;;;;;1.70;0.83;;;;;;;10.51;48.97;98474.67;3818402;76;390804;-76
2021/03/12 13:23:16;;;;;;;3.20;1.53;;;;;;;10.68;50.60;98461.89;3817808;76;393982;-76
2021/03/12 13:28:40;;;;;;;0.80;0.50;;;;;;;10.31;50.00;98454.34;3831667;76;384505;-76
2021/03/12 13:34:01;;;;;;;0.90;0.60;;;;;;;11.00;49.87;98454.70;3831909;75;384618;-76
2021/03/12 13:39:22;;;;;;;0.90;0.50;;;;;;;10.74;51.19;98457.47;3831747;76;384512;-76
2021/03/12 13:44:44;;;;;;;0.90;0.60;;;;;;;11.17;50.08;98429.67;3831810;76;384524;-76
2021/03/12 13:50:08;;;;;;;0.80;0.40;;;;;;;11.44;51.50;98435.10;3831763;76;384503;-75
2021/03/12 13:55:30;;;;;;;1.00;0.90;;;;;;;11.03;51.71;98439.33;3830193;75;392837;-75
2021/03/12 14:00:51;;;;;;;1.00;0.50;;;;;;;10.77;53.58;98440.91;3831621;76;388673;-75
2021/03/12 14:06:12;;;;;;;0.80;0.40;;;;;;;9.85;55.55;98456.84;3831376;75;384545;-75
2021/03/12 14:11:34;;;;;;;0.80;0.40;;;;;;;8.55;67.76;98488.50;3819223;74;384553;-77
2021/03/12 14:16:56;;;;;;;0.80;0.40;;;;;;;7.00;83.08;98491.18;3815266;74;383824;-77
2021/03/12 14:22:17;;;;;;;1.20;0.80;;;;;;;7.76;89.01;98462.36;3813437;76;388716;-78
2021/03/12 14:27:38;;;;;;;1.00;0.63;;;;;;;9.16;80.65;98447.32;3815313;74;391902;-77
2021/03/12 14:33:00;;;;;;;0.80;0.40;;;;;;;9.57;69.66;98431.80;3815235;74;383872;-76
2021/03/12 14:38:20;;;;;;;0.80;0.40;;;;;;;9.82;70.57;98426.05;3812588;77;384532;-76
2021/03/12 14:43:41;;;;;;;7.47;3.03;;;;;;;10.95;64.90;98416.66;3812243;76;397019;-76
2021/03/12 14:49:04;;;;;;;1.73;1.33;;;;;;;11.13;63.59;98397.28;3813157;76;392843;-76
2021/03/12 14:54:25;;;;;;;1.17;0.80;;;;;;;11.23;63.57;98398.28;3814836;74;391922;-77
2021/03/12 14:59:46;;;;;;;3.73;1.43;;;;;;;10.11;65.63;98408.06;3814440;74;394059;-77
2021/03/12 15:05:08;;;;;;;1.00;0.60;;;;;;;9.72;69.24;98409.89;3813541;76;383587;-77
2021/03/12 15:10:30;;;;;;;1.07;0.67;;;;;;;10.47;65.14;98390.09;3813411;76;391926;-77
2021/03/12 15:15:51;;;;;;;0.80;0.40;;;;;;;9.93;65.51;98371.78;3813763;76;384533;-79
2021/03/12 15:21:15;;;;;;;7.43;1.00;;;;;;;9.89;63.60;98371.03;3813488;76;393155;-79
2021/03/12 15:26:37;;;;;;;1.73;0.90;;;;;;;9.64;64.47;98365.05;3813181;76;384513;-80
2021/03/12 15:31:59;;;;;;;0.80;0.50;;;;;;;10.28;63.90;98358.95;3813784;76;384576;-80
2021/03/12 15:37:21;;;;;;;5.77;1.17;;;;;;;9.73;64.36;98352.98;3813453;76;390836;-80
2021/03/12 15:42:43;;;;;;;0.80;0.40;;;;;;;10.26;62.03;98351.12;3794326;76;383575;-80
2021/03/12 15:48:04;;;;;;;2.10;0.70;;;;;;;10.58;58.53;98348.06;3813651;76;384515;-80
2021/03/12 15:53:25;;;;;;;0.93;0.70;;;;;;;10.93;56.53;98341.99;3813630;76;383784;-79
2021/03/12 15:58:47;;;;;;;1.80;0.93;;;;;;;11.06;54.95;98329.78;3814904;74;394301;-80
2021/03/12 16:04:09;;;;;;;0.80;0.50;;;;;;;11.64;53.06;98322.98;3813860;76;384514;-80
2021/03/12 16:09:31;;;;;;;0.93;0.83;;;;;;;11.80;51.86;98321.67;3802821;76;393345;-80
2021/03/12 16:14:52;;;;;;;1.00;0.77;;;;;;;11.15;50.71;98322.52;3813918;76;384638;-80
2021/03/12 16:20:14;;;;;;;1.53;0.93;;;;;;;10.67;52.51;98316.69;3815099;74;394981;-80
2021/03/12 16:25:36;;;;;;;0.80;0.40;;;;;;;10.56;51.91;98310.60;3802571;76;384564;-80
2021/03/12 16:30:57;;;;;;;1.10;0.60;;;;;;;9.51;55.00;98301.66;3815524;74;384799;-79
2021/03/12 16:36:18;;;;;;;2.47;1.50;;;;;;;9.11;56.20;98314.09;3812925;76;397044;-79
2021/03/12 16:41:41;;;;;;;1.13;0.60;;;;;;;9.05;58.07;98311.59;3813648;76;389822;-79
2021/03/12 16:47:04;;;;;;;5.60;1.70;;;;;;;9.05;57.54;98305.34;3813844;76;384767;-80
2021/03/12 16:52:25;;;;;;;1.13;1.03;;;;;;;8.93;58.22;98308.00;3813003;76;391062;-80
2021/03/12 16:57:46;;;;;;;0.90;0.60;;;;;;;8.88;58.54;98297.45;3814141;76;384562;-79
2021/03/12 17:03:07;;;;;;;0.90;0.70;;;;;;;8.72;59.83;98278.63;3813997;76;384581;-79
2021/03/12 17:08:29;;;;;;;0.90;0.60;;;;;;;8.70;60.54;98274.73;3814089;76;384608;-79
2021/03/12 17:13:51;;;;;;;3.30;1.93;;;;;;;8.47;63.02;98269.84;3807806;75;395945;-79
2021/03/12 17:19:12;;;;;;;1.20;1.10;;;;;;;8.33;64.31;98256.27;3813732;76;384800;-80
2021/03/12 17:24:33;;;;;;;1.00;0.90;;;;;;;8.27;65.05;98248.87;3813501;76;385675;-79
2021/03/12 17:29:55;;;;;;;1.23;1.13;;;;;;;8.16;65.36;98248.17;3815545;74;392949;-80
2021/03/12 17:35:17;;;;;;;0.90;0.57;;;;;;;8.11;65.83;98248.58;3815506;74;384600;-79
2021/03/12 17:40:38;;;;;;;0.90;0.77;;;;;;;8.08;65.70;98246.06;3815312;74;385539;-79
2021/03/12 17:46:00;;;;;;;14.90;1.13;;;;;;;8.03;66.29;98235.55;3813865;76;384543;-79
2021/03/12 17:51:21;;;;;;;1.20;0.57;;;;;;;7.92;66.20;98234.05;3812710;76;386682;-79
2021/03/12 17:56:42;;;;;;;0.80;0.50;;;;;;;7.91;66.11;98234.64;3813816;76;384554;-79
2021/03/12 18:02:03;;;;;;;0.93;0.70;;;;;;;7.83;66.41;98233.73;3813820;76;385612;-80
2021/03/12 18:07:24;;;;;;;0.80;0.50;;;;;;;7.80;66.78;98227.69;3813053;77;383579;-79
2021/03/12 18:12:45;;;;;;;0.80;0.47;;;;;;;7.72;67.67;98228.91;3814291;76;383857;-79
2021/03/12 18:18:08;;;;;;;0.80;0.40;;;;;;;7.63;68.29;98231.31;3812947;76;384976;-80
2021/03/12 18:23:29;;;;;;;2.00;1.00;;;;;;;7.53;69.08;98227.27;3813174;76;392993;-79
2021/03/12 18:28:52;;;;;;;1.20;0.63;;;;;;;7.37;70.67;98231.07;3814132;76;384585;-79
2021/03/12 18:34:13;;;;;;;5.40;2.13;;;;;;;7.13;72.58;98228.62;3813219;76;387794;-80
2021/03/12 18:39:35;;;;;;;1.93;1.20;;;;;;;7.03;74.00;98221.84;3794195;76;396138;-80
2021/03/12 18:44:56;;;;;;;4.43;0.97;;;;;;;7.01;74.82;98216.58;3813196;76;391873;-80
2021/03/12 18:50:19;;;;;;;1.30;0.83;;;;;;;7.06;74.57;98208.75;3815414;74;395190;-80
2021/03/12 18:55:40;;;;;;;1.03;0.87;;;;;;;7.13;74.17;98195.81;3813530;76;384846;-79
2021/03/12 19:01:02;;;;;;;1.20;0.77;;;;;;;7.20;73.80;98195.77;3813469;76;388023;-79
2021/03/12 19:06:23;;;;;;;4.50;1.10;;;;;;;7.26;73.50;98198.30;3812867;76;394029;-80
2021/03/12 19:11:45;;;;;;;10.03;4.27;;;;;;;7.28;73.64;98187.72;3815764;76;393946;-80
2021/03/12 19:17:07;;;;;;;1.37;1.23;;;;;;;7.15;74.42;98182.52;3817914;76;394927;-80
2021/03/12 19:22:28;;;;;;;1.33;0.63;;;;;;;7.20;74.57;98178.59;3818571;76;387904;-79
2021/03/12 19:27:49;;;;;;;1.43;0.60;;;;;;;7.14;75.06;98174.13;3818144;76;389776;-80
2021/03/12 19:33:10;;;;;;;0.90;0.70;;;;;;;7.19;74.95;98165.49;3818373;76;391866;-80
2021/03/12 19:38:32;;;;;;;1.00;0.70;;;;;;;7.25;74.60;98154.92;3818609;76;384512;-79
2021/03/12 19:43:53;;;;;;;0.80;0.50;;;;;;;7.31;74.54;98159.58;3818650;76;383576;-79
2021/03/12 19:49:14;;;;;;;0.80;0.40;;;;;;;7.43;74.00;98167.30;3818209;77;384556;-80
2021/03/12 19:54:35;;;;;;;0.97;0.63;;;;;;;7.33;74.63;98159.97;3818729;76;384553;-80
2021/03/12 19:59:57;;;;;;;0.90;0.47;;;;;;;7.45;73.96;98157.35;3820605;74;384574;-79
2021/03/12 20:05:18;;;;;;;1.57;1.47;;;;;;;7.39;74.23;98156.23;3817933;76;389872;-80
2021/03/12 20:10:39;;;;;;;1.10;1.00;;;;;;;7.41;74.34;98144.27;3817790;76;384644;-79
2021/03/12 20:16:01;;;;;;;0.83;0.50;;;;;;;7.55;73.70;98134.02;3818711;76;383587;-79
2021/03/12 20:21:24;;;;;;;0.90;0.77;;;;;;;7.61;73.53;98133.77;3818408;76;391935;-79
2021/03/12 20:26:47;;;;;;;1.20;0.70;;;;;;;7.53;74.85;98124.66;3818705;76;389762;-80
2021/03/12 20:32:09;;;;;;;0.80;0.40;;;;;;;7.51;75.47;98118.20;3818495;76;384534;-80
2021/03/12 20:37:30;;;;;;;3.33;1.53;;;;;;;7.51;75.89;98123.67;3817799;76;383596;-80
2021/03/12 20:42:52;;;;;;;0.80;0.40;;;;;;;7.53;76.00;98117.21;3818695;76;383565;-79
2021/03/12 20:48:13;;;;;;;2.50;1.27;;;;;;;7.60;75.82;98117.16;3819561;74;384534;-79
2021/03/12 20:53:34;;;;;;;0.80;0.40;;;;;;;7.63;76.31;98116.36;3818787;76;383583;-79
2021/03/12 20:58:56;;;;;;;0.80;0.40;;;;;;;7.70;76.49;98113.56;3820253;74;383832;-79
2021/03/12 21:04:17;;;;;;;1.30;0.83;;;;;;;7.72;77.85;98149.53;3819349;74;395311;-81
2021/03/12 21:09:39;;;;;;;0.80;0.40;;;;;;;7.34;92.48;98201.77;3819193;76;383579;-81
2021/03/12 21:15:00;;;;;;;1.07;0.60;;;;;;;6.30;100.00;98234.88;3819931;74;383777;-81
2021/03/12 21:20:22;;;;;;;0.80;0.40;;;;;;;5.87;100.00;98226.48;3819402;76;383536;-82
2021/03/12 21:25:43;;;;;;;0.80;0.40;;;;;;;5.48;100.00;98213.95;3818879;76;383772;-81
2021/03/12 21:31:06;;;;;;;0.90;0.50;;;;;;;5.16;100.00;98253.38;3819366;76;383613;-81
2021/03/12 21:36:28;;;;;;;0.80;0.40;;;;;;;4.98;100.00;98259.33;3819268;76;383598;-81
2021/03/12 21:41:50;;;;;;;0.80;0.40;;;;;;;4.72;100.00;98266.98;3819315;76;383568;-80
2021/03/12 21:47:11;;;;;;;0.80;0.50;;;;;;;4.59;100.00;98275.83;3819649;76;383785;-81
2021/03/12 21:52:32;;;;;;;0.80;0.50;;;;;;;4.37;100.00;98274.91;3832516;75;383804;-80
2021/03/12 21:57:53;;;;;;;0.80;0.40;;;;;;;4.23;100.00;98284.92;3832430;75;383544;-80
2021/03/12 22:03:15;;;;;;;0.80;0.40;;;;;;;4.05;100.00;98283.39;3832317;75;383796;-80
2021/03/12 22:08:36;;;;;;;0.80;0.40;;;;;;;4.07;100.00;98291.97;3832809;76;383801;-80
2021/03/12 22:13:58;;;;;;;0.80;0.50;;;;;;;4.01;100.00;98287.23;3828742;76;383809;-80
2021/03/12 22:19:20;;;;;;;0.80;0.40;;;;;;;3.89;100.00;98282.09;3823601;76;383572;-80
2021/03/12 22:24:41;;;;;;;0.80;0.40;;;;;;;3.89;100.00;98264.97;3814491;76;383579;-79
2021/03/12 22:30:03;;;;;;;0.90;0.50;;;;;;;3.91;100.00;98272.19;3815781;74;383580;-79
2021/03/12 22:35:26;;;;;;;1.10;0.53;;;;;;;3.88;100.00;98267.52;3795250;77;385631;-78
2021/03/12 22:40:48;;;;;;;0.80;0.40;;;;;;;3.88;100.00;98252.55;3814202;76;383580;-78
2021/03/12 22:46:10;;;;;;;0.80;0.40;;;;;;;3.89;100.00;98252.16;3816105;74;383794;-78
2021/03/12 22:51:31;;;;;;;0.80;0.40;;;;;;;3.84;100.00;98245.69;3813805;76;383556;-79
2021/03/12 22:56:53;;;;;;;0.80;0.43;;;;;;;4.00;100.00;98253.02;3814217;76;383588;-79
2021/03/12 23:02:16;;;;;;;0.80;0.40;;;;;;;4.09;100.00;98263.81;3814036;76;383848;-79
2021/03/12 23:07:37;;;;;;;0.80;0.40;;;;;;;4.15;100.00;98267.73;3814051;76;383594;-78
2021/03/12 23:12:59;;;;;;;0.80;0.40;;;;;;;4.26;100.00;98266.45;3815553;76;383540;-78
2021/03/12 23:18:22;;;;;;;0.93;0.83;;;;;;;4.32;100.00;98265.73;3818825;76;393993;-78
2021/03/12 23:23:48;;;;;;;0.80;0.50;;;;;;;4.38;100.00;98262.86;3819617;76;383812;-79
2021/03/12 23:29:09;;;;;;;0.80;0.50;;;;;;;4.43;100.00;98264.44;3818939;76;383575;-80
2021/03/12 23:34:31;;;;;;;0.90;0.63;;;;;;;4.31;100.00;98262.80;3819229;76;383610;-79
2021/03/12 23:39:52;;;;;;;1.10;0.87;;;;;;;4.30;100.00;98255.80;3820753;76;383800;-80
2021/03/12 23:45:21;;;;;;;0.80;0.40;;;;;;;4.23;100.00;98255.75;3821545;74;383583;-78
2021/03/12 23:50:46;;;;;;;0.80;0.40;;;;;;;4.13;100.00;98254.31;3818790;77;383647;-78
2021/03/12 23:56:08;;;;;;;0.80;0.40;;;;;;;4.20;100.00;98248.92;3819160;76;383572;-79
